Аэропорт: Оренбург-Центральный. Оренбург

ICAO: UWOO

METAR:
2018/11/19 10:00
UWOO 191000Z 22002MPS CAVOK 02/M13 Q1026 R26/CLRD60 NOSIG RMK QFE759/1012
METAR:
2018/11/19 09:21
TAF UWOO 190800Z 1909/2009 21003G08MPS 9999 BKN020 TX00/1911Z TNM09/2003Z 
      TEMPO 1909/1923 23003G08MPS 
     FM192300 24003G08MPS 4000 BR BKN011 SCT015CB 
      TEMPO 2001/2009 22003G08MPS 3100 -SHSNRA BKN009 SCT014CB